createdAt,value
2017-04-09T08:38:03.573Z,1014.83
2017-04-09T08:39:05.010Z,1014.80
2017-04-09T08:40:06.443Z,1014.76
2017-04-09T08:41:07.879Z,1014.75
2017-04-09T08:42:09.307Z,1014.80
2017-04-09T08:43:10.737Z,1014.82
2017-04-09T08:44:12.169Z,1014.80
2017-04-09T08:45:13.608Z,1014.80
2017-04-09T08:46:15.045Z,1014.77
2017-04-09T08:47:16.469Z,1014.77
2017-04-09T08:48:17.906Z,1014.76
2017-04-09T08:49:19.334Z,1014.78
2017-04-09T08:50:20.790Z,1014.78
2017-04-09T08:51:22.226Z,1014.74
2017-04-09T08:52:23.658Z,1014.79
2017-04-09T08:53:25.096Z,1014.79
2017-04-09T08:54:26.536Z,1014.78
2017-04-09T08:55:27.987Z,1014.82
2017-04-09T08:56:29.430Z,1014.78
2017-04-09T08:57:30.865Z,1014.81
2017-04-09T08:58:32.339Z,1014.81
2017-04-09T08:59:33.799Z,1014.79
2017-04-09T09:00:35.221Z,1014.78
2017-04-09T09:01:36.659Z,1014.79
2017-04-09T09:02:38.089Z,1014.79
2017-04-09T09:03:39.529Z,1014.82
2017-04-09T09:04:40.963Z,1014.78
2017-04-09T09:05:42.407Z,1014.78
2017-04-09T09:06:43.837Z,1014.78
2017-04-09T09:07:45.274Z,1014.83
2017-04-09T09:08:46.709Z,1014.80
2017-04-09T09:09:48.141Z,1014.81
2017-04-09T09:10:49.578Z,1014.83
2017-04-09T09:11:51.011Z,1014.80
2017-04-09T09:12:52.445Z,1014.81
2017-04-09T09:13:53.883Z,1014.79
2017-04-09T09:14:55.317Z,1014.81
2017-04-09T09:15:56.749Z,1014.79
2017-04-09T09:16:58.178Z,1014.78
2017-04-09T09:17:59.622Z,1014.82
2017-04-09T09:19:01.055Z,1014.78
2017-04-09T09:20:02.487Z,1014.78
2017-04-09T09:21:03.914Z,1014.79
2017-04-09T09:22:05.353Z,1014.76
2017-04-09T09:23:06.788Z,1014.73
2017-04-09T09:24:08.220Z,1014.78
2017-04-09T09:25:09.656Z,1014.78
2017-04-09T09:26:11.087Z,1014.82
2017-04-09T09:27:12.520Z,1014.77
2017-04-09T09:28:13.962Z,1014.80
2017-04-09T09:29:15.387Z,1014.77
2017-04-09T09:30:16.816Z,1014.75
2017-04-09T09:31:18.257Z,1014.77
2017-04-09T09:32:19.694Z,1014.77
2017-04-09T09:33:21.132Z,1014.72
2017-04-09T09:34:22.563Z,1014.77
2017-04-09T09:35:23.996Z,1014.76
2017-04-09T09:36:25.437Z,1014.76
2017-04-09T09:37:26.866Z,1014.77
2017-04-09T09:38:28.308Z,1014.76
2017-04-09T09:39:29.749Z,1014.75
2017-04-09T09:40:31.180Z,1014.70
2017-04-09T09:41:32.617Z,1014.68
2017-04-09T09:42:34.051Z,1014.73
2017-04-09T09:43:35.492Z,1014.65
2017-04-09T09:44:36.924Z,1014.67
2017-04-09T09:45:38.437Z,1014.64
2017-04-09T09:46:39.876Z,1014.70
2017-04-09T09:47:41.312Z,1014.67
2017-04-09T09:48:42.768Z,1014.67
2017-04-09T09:49:44.206Z,1014.67
2017-04-09T09:50:45.654Z,1014.66
2017-04-09T09:51:47.091Z,1014.66
2017-04-09T09:52:48.524Z,1014.66
2017-04-09T09:53:49.966Z,1014.62
2017-04-09T09:54:51.923Z,1014.61
2017-04-09T09:55:53.355Z,1014.63
2017-04-09T09:56:54.786Z,1014.61
2017-04-09T09:57:56.239Z,1014.60
2017-04-09T09:58:57.674Z,1014.61
2017-04-09T10:00:00.670Z,1014.59
2017-04-09T10:01:02.121Z,1014.59
2017-04-09T10:02:03.555Z,1014.60
2017-04-09T10:03:04.991Z,1014.60
2017-04-09T10:04:06.429Z,1014.57
2017-04-09T10:05:07.865Z,1014.58
2017-04-09T10:06:09.302Z,1014.58
2017-04-09T10:07:10.738Z,1014.53
2017-04-09T10:08:12.176Z,1014.54
2017-04-09T10:09:13.612Z,1014.53
2017-04-09T10:10:15.049Z,1014.49
2017-04-09T10:11:16.477Z,1014.54
2017-04-09T10:12:17.904Z,1014.54
2017-04-09T10:13:19.339Z,1014.51
2017-04-09T10:14:20.775Z,1014.53
2017-04-09T10:15:22.212Z,1014.54
2017-04-09T10:16:23.651Z,1014.53
2017-04-09T10:17:25.085Z,1014.50
2017-04-09T10:18:26.524Z,1014.46
2017-04-09T10:19:27.966Z,1014.45
2017-04-09T10:20:29.407Z,1014.47
2017-04-09T10:21:30.850Z,1014.48
2017-04-09T10:22:32.283Z,1014.50
2017-04-09T10:23:33.721Z,1014.50
2017-04-09T10:24:35.165Z,1014.46
2017-04-09T10:25:36.602Z,1014.42
2017-04-09T10:26:38.087Z,1014.41
2017-04-09T10:27:39.523Z,1014.41
2017-04-09T10:28:40.961Z,1014.42
2017-04-09T10:29:42.401Z,1014.40
2017-04-09T10:30:43.847Z,1014.42
2017-04-09T10:31:45.294Z,1014.37
2017-04-09T10:32:46.782Z,1014.41
2017-04-09T10:33:48.221Z,1014.39
2017-04-09T10:34:49.659Z,1014.42
2017-04-09T10:35:51.095Z,1014.38
2017-04-09T10:36:52.546Z,1014.41
2017-04-09T10:37:54.022Z,1014.40
2017-04-09T10:38:55.456Z,1014.40
2017-04-09T10:39:56.890Z,1014.38
2017-04-09T10:40:58.356Z,1014.37
2017-04-09T10:41:59.798Z,1014.36
2017-04-09T10:43:01.239Z,1014.35
2017-04-09T10:44:02.685Z,1014.34
2017-04-09T10:45:04.125Z,1014.33
2017-04-09T10:46:05.570Z,1014.32
2017-04-09T10:47:07.006Z,1014.32
2017-04-09T10:48:08.459Z,1014.32
2017-04-09T10:49:09.901Z,1014.29
2017-04-09T10:50:11.348Z,1014.30
2017-04-09T10:51:12.786Z,1014.32
2017-04-09T10:52:14.227Z,1014.28
2017-04-09T10:53:15.661Z,1014.29
2017-04-09T10:54:17.097Z,1014.30
2017-04-09T10:55:18.551Z,1014.30
2017-04-09T10:56:19.988Z,1014.29
2017-04-09T10:57:21.427Z,1014.30
2017-04-09T10:58:22.866Z,1014.29
2017-04-09T10:59:24.303Z,1014.33
2017-04-09T11:00:25.745Z,1014.31
2017-04-09T11:01:27.182Z,1014.30
2017-04-09T11:02:28.623Z,1014.29
2017-04-09T11:03:30.110Z,1014.32
2017-04-09T11:04:31.551Z,1014.33
2017-04-09T11:05:32.989Z,1014.28
2017-04-09T11:06:34.451Z,1014.27
2017-04-09T11:07:35.882Z,1014.23
2017-04-09T11:08:37.321Z,1014.32
2017-04-09T11:09:38.808Z,1014.29
2017-04-09T11:10:40.245Z,1014.24
2017-04-09T11:11:41.689Z,1014.23
2017-04-09T11:12:43.126Z,1014.25
2017-04-09T11:13:44.568Z,1014.25
2017-04-09T11:14:46.007Z,1014.20
2017-04-09T11:15:47.451Z,1014.15
2017-04-09T11:16:48.893Z,1014.11
2017-04-09T11:17:50.334Z,1014.17
2017-04-09T11:18:51.771Z,1014.13
2017-04-09T11:19:53.211Z,1014.10
2017-04-09T11:20:54.655Z,1014.12
2017-04-09T11:21:56.091Z,1014.12
2017-04-09T11:22:57.530Z,1014.10
2017-04-09T11:23:58.991Z,1014.10
2017-04-09T11:25:00.431Z,1014.14
2017-04-09T11:26:01.870Z,1014.08
2017-04-09T11:27:03.312Z,1014.06
2017-04-09T11:28:04.744Z,1014.10
2017-04-09T11:29:06.193Z,1014.10
2017-04-09T11:30:07.634Z,1014.12
2017-04-09T11:31:09.074Z,1014.08
2017-04-09T11:32:10.522Z,1014.09
2017-04-09T11:33:11.968Z,1014.09
2017-04-09T11:34:13.403Z,1014.11
2017-04-09T11:35:14.842Z,1014.04
2017-04-09T11:36:16.277Z,1014.06
2017-04-09T11:37:17.719Z,1014.08
2017-04-09T11:38:19.156Z,1014.08
2017-04-09T11:39:20.646Z,1014.09
2017-04-09T11:40:22.099Z,1014.03
2017-04-09T11:41:23.542Z,1014.08
2017-04-09T11:42:24.987Z,1014.05
2017-04-09T11:43:26.429Z,1014.03
2017-04-09T11:44:27.873Z,1014.01
2017-04-09T11:45:29.303Z,1014.02
2017-04-09T11:46:30.743Z,1013.98
2017-04-09T11:47:32.187Z,1014.00
2017-04-09T11:48:33.622Z,1014.01
2017-04-09T11:49:35.064Z,1014.04
2017-04-09T11:50:36.501Z,1013.98
2017-04-09T11:51:37.968Z,1014.00
2017-04-09T11:52:39.406Z,1013.94
2017-04-09T11:53:40.857Z,1013.94
2017-04-09T11:54:42.309Z,1013.97
2017-04-09T11:55:43.758Z,1013.93
2017-04-09T11:56:45.296Z,1013.93
2017-04-09T11:57:46.737Z,1013.89
2017-04-09T11:58:48.190Z,1013.87
2017-04-09T11:59:49.631Z,1013.85
2017-04-09T12:00:51.099Z,1013.85
2017-04-09T12:01:52.551Z,1013.83
2017-04-09T12:02:53.989Z,1013.82
2017-04-09T12:03:55.437Z,1013.77
2017-04-09T12:04:56.884Z,1013.82
2017-04-09T12:05:58.327Z,1013.79
2017-04-09T12:06:59.764Z,1013.78
2017-04-09T12:08:01.197Z,1013.73
2017-04-09T12:09:02.645Z,1013.76
2017-04-09T12:10:04.086Z,1013.69
2017-04-09T12:11:05.528Z,1013.74
2017-04-09T12:12:06.968Z,1013.73
2017-04-09T12:13:08.427Z,1013.70
2017-04-09T12:14:09.862Z,1013.74
2017-04-09T12:15:11.302Z,1013.71
2017-04-09T12:16:12.746Z,1013.67
2017-04-09T12:17:14.183Z,1013.67
2017-04-09T12:18:15.624Z,1013.67
2017-04-09T12:19:17.064Z,1013.67
2017-04-09T12:20:18.499Z,1013.68
2017-04-09T12:21:19.939Z,1013.64
2017-04-09T12:22:21.374Z,1013.65
2017-04-09T12:23:22.811Z,1013.65
2017-04-09T12:24:24.308Z,1013.58
2017-04-09T12:25:25.719Z,1013.64
2017-04-09T12:26:27.171Z,1013.64
2017-04-09T12:27:28.609Z,1013.60
2017-04-09T12:28:30.051Z,1013.57
2017-04-09T12:29:31.488Z,1013.57
2017-04-09T12:30:32.936Z,1013.57
2017-04-09T12:31:34.387Z,1013.56
2017-04-09T12:32:35.828Z,1013.53
2017-04-09T12:33:37.270Z,1013.54
2017-04-09T12:34:38.711Z,1013.51
2017-04-09T12:35:40.145Z,1013.49
2017-04-09T12:36:41.587Z,1013.50
2017-04-09T12:37:43.025Z,1013.51
2017-04-09T12:38:44.467Z,1013.51
2017-04-09T12:39:45.911Z,1013.50
2017-04-09T12:40:47.347Z,1013.46
2017-04-09T12:41:48.786Z,1013.49
2017-04-09T12:42:50.264Z,1013.46
2017-04-09T12:43:51.700Z,1013.49
2017-04-09T12:44:53.110Z,1013.46
2017-04-09T12:45:54.548Z,1013.50
2017-04-09T12:46:55.990Z,1013.45
2017-04-09T12:47:57.430Z,1013.44
2017-04-09T12:48:58.875Z,1013.42
2017-04-09T12:50:00.316Z,1013.38
2017-04-09T12:51:01.754Z,1013.40
2017-04-09T12:52:03.206Z,1013.37
2017-04-09T12:53:04.648Z,1013.35
2017-04-09T12:54:06.087Z,1013.34
2017-04-09T12:55:07.532Z,1013.40
2017-04-09T12:56:08.969Z,1013.33
2017-04-09T12:57:10.406Z,1013.34
2017-04-09T12:58:11.851Z,1013.35
2017-04-09T12:59:13.284Z,1013.32
2017-04-09T13:00:14.757Z,1013.28
2017-04-09T13:01:16.223Z,1013.25
2017-04-09T13:02:17.661Z,1013.26
2017-04-09T13:03:19.103Z,1013.21
2017-04-09T13:04:20.546Z,1013.24
2017-04-09T13:05:21.987Z,1013.20
2017-04-09T13:06:23.427Z,1013.21
2017-04-09T13:07:24.874Z,1013.21
2017-04-09T13:08:26.318Z,1013.19
2017-04-09T13:09:27.754Z,1013.18
2017-04-09T13:10:29.200Z,1013.16
2017-04-09T13:11:30.672Z,1013.14
2017-04-09T13:12:32.110Z,1013.15
2017-04-09T13:13:33.550Z,1013.18
2017-04-09T13:14:34.982Z,1013.15
2017-04-09T13:15:36.444Z,1013.14
2017-04-09T13:16:37.882Z,1013.08
2017-04-09T13:17:39.332Z,1013.07
2017-04-09T13:18:40.760Z,1013.10
2017-04-09T13:19:42.206Z,1013.13
2017-04-09T13:20:43.655Z,1013.05
2017-04-09T13:21:45.085Z,1013.04
2017-04-09T13:22:46.525Z,1013.05
2017-04-09T13:23:47.969Z,1013.03
2017-04-09T13:24:49.417Z,1013.05
2017-04-09T13:25:50.869Z,1013.04
2017-04-09T13:26:52.338Z,1013.16
2017-04-09T13:27:53.798Z,1013.38
2017-04-09T13:28:55.246Z,1013.41
2017-04-09T13:29:56.687Z,1013.40
2017-04-09T13:30:58.123Z,1013.37
2017-04-09T13:31:59.569Z,1013.36
2017-04-09T13:33:01.022Z,1013.35
2017-04-09T13:34:02.457Z,1013.32
2017-04-09T13:35:03.901Z,1013.36
2017-04-09T13:36:05.340Z,1013.40
2017-04-09T13:37:06.786Z,1013.25
2017-04-09T13:38:08.251Z,1013.15
2017-04-09T13:39:09.696Z,1013.04
2017-04-09T13:40:11.139Z,1013.05
2017-04-09T13:41:12.583Z,1012.99
2017-04-09T13:42:14.025Z,1012.98
2017-04-09T13:43:15.469Z,1012.93
2017-04-09T13:44:16.920Z,1013.04
2017-04-09T13:45:18.385Z,1013.03
2017-04-09T13:46:19.835Z,1012.93
2017-04-09T13:47:21.282Z,1012.83
2017-04-09T13:48:22.736Z,1012.85
2017-04-09T13:49:24.187Z,1012.89
2017-04-09T13:50:25.629Z,1012.98
2017-04-09T13:51:27.079Z,1012.99
2017-04-09T13:52:28.530Z,1012.77
2017-04-09T13:53:29.980Z,1012.73
2017-04-09T13:54:31.422Z,1012.74
2017-04-09T13:55:32.872Z,1012.69
2017-04-09T13:56:34.320Z,1012.67
2017-04-09T13:57:35.802Z,1012.64
2017-04-09T13:58:37.220Z,1012.62
2017-04-09T13:59:38.671Z,1012.59
2017-04-09T14:00:40.137Z,1012.65
2017-04-09T14:01:41.576Z,1012.59
2017-04-09T14:02:43.019Z,1012.59
2017-04-09T14:03:44.473Z,1012.60
2017-04-09T14:04:45.930Z,1012.57
2017-04-09T14:05:47.367Z,1012.53
2017-04-09T14:06:48.818Z,1012.52
2017-04-09T14:07:50.259Z,1012.51
2017-04-09T14:08:51.701Z,1012.50
2017-04-09T14:09:53.142Z,1012.54
2017-04-09T14:10:54.588Z,1012.51
2017-04-09T14:11:56.037Z,1012.44
2017-04-09T14:12:57.486Z,1012.40
2017-04-09T14:13:58.928Z,1012.45
2017-04-09T14:15:00.407Z,1012.41
2017-04-09T14:16:01.852Z,1012.41
2017-04-09T14:17:03.294Z,1012.38
2017-04-09T14:18:04.741Z,1012.40
2017-04-09T14:19:06.183Z,1012.37
2017-04-09T14:20:07.622Z,1012.36
2017-04-09T14:21:09.067Z,1012.38
2017-04-09T14:22:10.511Z,1012.37
2017-04-09T14:23:11.941Z,1012.35
2017-04-09T14:24:13.400Z,1012.32
2017-04-09T14:25:14.844Z,1012.26
2017-04-09T14:26:16.277Z,1012.29
2017-04-09T14:27:17.732Z,1012.23
2017-04-09T14:28:19.185Z,1012.25
2017-04-09T14:29:20.627Z,1012.24
2017-04-09T14:30:22.065Z,1012.21
2017-04-09T14:31:23.510Z,1012.23
2017-04-09T14:32:24.953Z,1012.19
2017-04-09T14:33:26.393Z,1012.21
2017-04-09T14:34:27.834Z,1012.18
2017-04-09T14:35:29.275Z,1012.20
2017-04-09T14:36:30.713Z,1012.19
2017-04-09T14:37:32.153Z,1012.21
2017-04-09T14:38:33.589Z,1012.15
2017-04-09T14:39:35.035Z,1012.15
2017-04-09T14:40:36.477Z,1012.14
2017-04-09T14:41:37.919Z,1012.15
2017-04-09T14:42:39.358Z,1012.17
2017-04-09T14:43:40.794Z,1012.13
2017-04-09T14:44:42.243Z,1012.14
2017-04-09T14:45:43.705Z,1012.14
2017-04-09T14:46:45.127Z,1012.15
2017-04-09T14:47:46.562Z,1012.14
2017-04-09T14:48:48.010Z,1012.08
2017-04-09T14:49:49.447Z,1012.00
2017-04-09T14:50:50.893Z,1012.03
2017-04-09T14:51:52.332Z,1012.01
2017-04-09T14:52:53.775Z,1012.03
2017-04-09T14:53:55.225Z,1011.99
2017-04-09T14:54:56.664Z,1011.96
2017-04-09T14:55:58.100Z,1011.96
2017-04-09T14:56:59.545Z,1011.95
2017-04-09T14:58:00.993Z,1011.90
2017-04-09T14:59:02.434Z,1011.93
2017-04-09T15:00:03.875Z,1011.93
2017-04-09T15:01:05.319Z,1011.83
2017-04-09T15:02:06.755Z,1011.80
2017-04-09T15:03:08.197Z,1011.82
2017-04-09T15:04:09.639Z,1011.79
2017-04-09T15:05:11.075Z,1011.78
2017-04-09T15:06:12.517Z,1011.78
2017-04-09T15:07:13.956Z,1011.72
2017-04-09T15:08:15.403Z,1011.76
2017-04-09T15:09:16.844Z,1011.70
2017-04-09T15:10:18.286Z,1011.68
2017-04-09T15:11:19.728Z,1011.69
2017-04-09T15:12:21.179Z,1011.72
2017-04-09T15:13:22.620Z,1011.65
2017-04-09T15:14:24.060Z,1011.67
2017-04-09T15:15:25.503Z,1011.71
2017-04-09T15:16:26.934Z,1011.66
2017-04-09T15:17:28.377Z,1011.64
2017-04-09T15:18:29.813Z,1011.62
2017-04-09T15:19:31.250Z,1011.63
2017-04-09T15:20:32.699Z,1011.62
2017-04-09T15:21:34.135Z,1011.64
2017-04-09T15:22:35.575Z,1011.61
2017-04-09T15:23:37.012Z,1011.59
2017-04-09T15:24:38.458Z,1011.62
2017-04-09T15:25:39.897Z,1011.58
2017-04-09T15:26:41.359Z,1011.61
2017-04-09T15:27:42.797Z,1011.56
2017-04-09T15:28:44.250Z,1011.57
2017-04-09T15:29:45.689Z,1011.61
2017-04-09T15:30:47.141Z,1011.56
2017-04-09T15:31:48.587Z,1011.56
2017-04-09T15:32:50.026Z,1011.51
2017-04-09T15:33:52.111Z,1011.55
2017-04-09T15:34:53.553Z,1011.52
2017-04-09T15:35:54.994Z,1011.52
2017-04-09T15:36:56.423Z,1011.49
2017-04-09T15:37:57.867Z,1011.51
2017-04-09T15:38:59.309Z,1011.51
2017-04-09T15:40:00.749Z,1011.49
2017-04-09T15:41:02.196Z,1011.50
2017-04-09T15:42:03.634Z,1011.50
2017-04-09T15:43:05.071Z,1011.51
2017-04-09T15:44:06.510Z,1011.51
2017-04-09T15:45:07.952Z,1011.48
2017-04-09T15:46:09.389Z,1011.49
2017-04-09T15:47:10.834Z,1011.47
2017-04-09T15:48:12.269Z,1011.44
2017-04-09T15:49:13.701Z,1011.44
2017-04-09T15:50:15.163Z,1011.40
2017-04-09T15:51:16.598Z,1011.39
2017-04-09T15:52:18.041Z,1011.36
2017-04-09T15:53:19.484Z,1011.36
2017-04-09T15:54:20.927Z,1011.37
2017-04-09T15:55:22.930Z,1011.33
2017-04-09T15:56:24.368Z,1011.29
2017-04-09T15:57:25.803Z,1011.32
2017-04-09T15:58:27.242Z,1011.28
2017-04-09T15:59:28.684Z,1011.27
2017-04-09T16:00:30.125Z,1011.27
2017-04-09T16:01:31.565Z,1011.29
2017-04-09T16:02:33.018Z,1011.27
2017-04-09T16:03:34.432Z,1011.29
2017-04-09T16:04:35.871Z,1011.25
2017-04-09T16:05:37.340Z,1011.24
2017-04-09T16:06:38.787Z,1011.26
2017-04-09T16:07:40.217Z,1011.25
2017-04-09T16:08:41.658Z,1011.24
2017-04-09T16:09:43.100Z,1011.23
2017-04-09T16:10:44.541Z,1011.20
2017-04-09T16:11:45.975Z,1011.19
2017-04-09T16:12:47.421Z,1011.22
2017-04-09T16:13:48.859Z,1011.18
2017-04-09T16:14:50.295Z,1011.18
2017-04-09T16:15:51.744Z,1011.18
2017-04-09T16:16:53.193Z,1011.19
2017-04-09T16:17:54.630Z,1011.15
2017-04-09T16:18:56.064Z,1011.17
2017-04-09T16:19:57.505Z,1011.17
2017-04-09T16:20:58.950Z,1011.16
2017-04-09T16:22:00.379Z,1011.15
2017-04-09T16:23:01.827Z,1011.16
2017-04-09T16:24:03.259Z,1011.14
2017-04-09T16:25:04.695Z,1011.13
2017-04-09T16:26:06.140Z,1011.15
2017-04-09T16:27:07.587Z,1011.16
2017-04-09T16:28:09.026Z,1011.11
2017-04-09T16:29:10.501Z,1011.14
2017-04-09T16:30:11.942Z,1011.16
2017-04-09T16:31:13.383Z,1011.13
2017-04-09T16:32:14.823Z,1011.14
2017-04-09T16:33:16.249Z,1011.05
2017-04-09T16:34:17.690Z,1011.09
2017-04-09T16:35:19.138Z,1011.10
2017-04-09T16:36:20.580Z,1011.07
2017-04-09T16:37:22.020Z,1011.08
2017-04-09T16:38:23.461Z,1011.07
2017-04-09T16:39:24.897Z,1011.06
2017-04-09T16:40:26.335Z,1011.07
2017-04-09T16:41:27.774Z,1011.07
2017-04-09T16:42:29.245Z,1011.14
2017-04-09T16:43:30.687Z,1011.13
2017-04-09T16:44:32.131Z,1011.09
2017-04-09T16:45:33.573Z,1011.06
2017-04-09T16:46:35.799Z,1011.03
2017-04-09T16:47:37.233Z,1011.03
2017-04-09T16:48:38.675Z,1011.01
2017-04-09T16:49:40.112Z,1011.06
2017-04-09T16:50:41.547Z,1010.99
2017-04-09T16:51:42.988Z,1010.99
2017-04-09T16:52:44.431Z,1010.95
2017-04-09T16:53:45.891Z,1010.97
2017-04-09T16:54:47.339Z,1010.99
2017-04-09T16:55:48.781Z,1010.91
2017-04-09T16:56:50.221Z,1010.92
2017-04-09T16:57:51.662Z,1010.92
2017-04-09T16:58:53.103Z,1010.88
2017-04-09T16:59:54.536Z,1010.88
2017-04-09T17:00:55.979Z,1010.87
2017-04-09T17:01:57.417Z,1010.90
2017-04-09T17:02:58.860Z,1010.87
2017-04-09T17:04:00.287Z,1010.88
2017-04-09T17:05:01.732Z,1010.84
2017-04-09T17:06:03.181Z,1010.83
2017-04-09T17:07:04.613Z,1010.82
2017-04-09T17:08:06.065Z,1010.86
2017-04-09T17:09:07.495Z,1010.82
2017-04-09T17:10:08.933Z,1010.82
2017-04-09T17:11:10.373Z,1010.80
2017-04-09T17:12:11.826Z,1010.80
2017-04-09T17:13:13.269Z,1010.77
2017-04-09T17:14:14.709Z,1010.78
2017-04-09T17:15:16.154Z,1010.81
2017-04-09T17:16:17.588Z,1010.76
2017-04-09T17:17:19.040Z,1010.79
2017-04-09T17:18:20.486Z,1010.78
2017-04-09T17:19:21.938Z,1010.78
2017-04-09T17:20:23.384Z,1010.78
2017-04-09T17:21:24.820Z,1010.75
2017-04-09T17:22:26.261Z,1010.74
2017-04-09T17:23:27.696Z,1010.76
2017-04-09T17:24:29.127Z,1010.77
2017-04-09T17:25:30.568Z,1010.76
2017-04-09T17:26:31.997Z,1010.75
2017-04-09T17:27:33.438Z,1010.76
2017-04-09T17:28:34.874Z,1010.75
2017-04-09T17:29:36.310Z,1010.73
2017-04-09T17:30:37.760Z,1010.74
2017-04-09T17:31:39.211Z,1010.72
2017-04-09T17:32:41.620Z,1010.72
2017-04-09T17:33:43.060Z,1010.70
2017-04-09T17:34:45.346Z,1010.73
2017-04-09T17:35:47.530Z,1010.69
2017-04-09T17:36:49.626Z,1010.72
2017-04-09T17:37:51.065Z,1010.74
2017-04-09T17:38:53.052Z,1010.73
2017-04-09T17:39:54.489Z,1010.72
2017-04-09T17:40:55.929Z,1010.66
2017-04-09T17:41:57.373Z,1010.69
2017-04-09T17:42:59.484Z,1010.68
2017-04-09T17:44:00.931Z,1010.69
2017-04-09T17:45:03.147Z,1010.64
2017-04-09T17:46:04.594Z,1010.65
2017-04-09T17:47:07.017Z,1010.63
2017-04-09T17:48:08.688Z,1010.63
2017-04-09T17:49:10.124Z,1010.59
2017-04-09T17:50:12.093Z,1010.64
2017-04-09T17:51:13.531Z,1010.62
2017-04-09T17:52:14.972Z,1010.64
2017-04-09T17:53:17.010Z,1010.63
2017-04-09T17:54:18.444Z,1010.59
2017-04-09T17:55:19.881Z,1010.59
2017-04-09T17:56:21.986Z,1010.59
2017-04-09T17:57:23.359Z,1010.57
2017-04-09T17:58:24.805Z,1010.60
2017-04-09T17:59:26.958Z,1010.55
2017-04-09T18:00:28.215Z,1010.55
2017-04-09T18:01:29.657Z,1010.55
2017-04-09T18:02:31.096Z,1010.58
2017-04-09T18:03:33.464Z,1010.61
2017-04-09T18:04:33.961Z,1010.59
2017-04-09T18:05:35.397Z,1010.56
2017-04-09T18:06:36.841Z,1010.62
2017-04-09T18:07:39.082Z,1010.58
2017-04-09T18:08:40.533Z,1010.56
2017-04-09T18:09:42.962Z,1010.58
2017-04-09T18:10:44.316Z,1010.60
2017-04-09T18:11:45.758Z,1010.58
2017-04-09T18:12:47.866Z,1010.60
2017-04-09T18:13:49.304Z,1010.58
2017-04-09T18:14:50.745Z,1010.54
2017-04-09T18:15:52.949Z,1010.53
2017-04-09T18:16:54.380Z,1010.55
2017-04-09T18:17:56.534Z,1010.52
2017-04-09T18:18:57.972Z,1010.50
2017-04-09T18:19:59.419Z,1010.50
2017-04-09T18:21:01.541Z,1010.48
2017-04-09T18:22:02.990Z,1010.49
2017-04-09T18:23:04.424Z,1010.49
2017-04-09T18:24:06.731Z,1010.48
2017-04-09T18:25:08.165Z,1010.51
2017-04-09T18:26:10.538Z,1010.49
2017-04-09T18:27:11.970Z,1010.50
2017-04-09T18:28:13.413Z,1010.50
2017-04-09T18:29:15.395Z,1010.47
2017-04-09T18:30:16.827Z,1010.50
2017-04-09T18:31:18.905Z,1010.49
2017-04-09T18:32:20.343Z,1010.49
2017-04-09T18:33:21.778Z,1010.46
2017-04-09T18:34:23.218Z,1010.52
2017-04-09T18:35:25.316Z,1010.50
2017-04-09T18:36:26.759Z,1010.50
2017-04-09T18:37:29.019Z,1010.51
2017-04-09T18:38:30.492Z,1010.51
2017-04-09T18:39:31.924Z,1010.50
2017-04-09T18:40:34.289Z,1010.49
2017-04-09T18:41:35.722Z,1010.50
2017-04-09T18:42:38.097Z,1010.52
2017-04-09T18:43:39.543Z,1010.54
2017-04-09T18:44:41.602Z,1010.55
2017-04-09T18:45:43.031Z,1010.59
2017-04-09T18:46:44.466Z,1010.60
2017-04-09T18:47:46.909Z,1010.58
2017-04-09T18:48:48.346Z,1010.57
2017-04-09T18:49:50.517Z,1010.56
2017-04-09T18:50:51.962Z,1010.54
2017-04-09T18:51:54.330Z,1010.54
2017-04-09T18:52:55.773Z,1010.54
2017-04-09T18:53:57.940Z,1010.55
2017-04-09T18:54:59.362Z,1010.52
2017-04-09T18:56:01.329Z,1010.51
2017-04-09T18:57:03.284Z,1010.51
2017-04-09T18:58:05.446Z,1010.54
2017-04-09T18:59:06.890Z,1010.54
2017-04-09T19:00:09.242Z,1010.51
2017-04-09T19:01:10.681Z,1010.51
2017-04-09T19:02:12.736Z,1010.52
2017-04-09T19:03:14.171Z,1010.52
2017-04-09T19:04:15.604Z,1010.51
2017-04-09T19:05:17.742Z,1010.52
2017-04-09T19:06:19.719Z,1010.52
2017-04-09T19:07:22.269Z,1010.56
2017-04-09T19:08:25.588Z,1010.52
2017-04-09T19:09:26.410Z,1010.51
2017-04-09T19:10:27.844Z,1010.53
2017-04-09T19:11:32.090Z,1010.52
